sensor_id;sensor_type;location;lat;lon;timestamp;temperature;humidity
9861;DHT22;4969;52.304;4.968;2023-01-15T00:01:20;12.07;62.98
9861;DHT22;4969;52.304;4.968;2023-01-15T00:03:49;11.68;69.41
9861;DHT22;4969;52.304;4.968;2023-01-15T00:06:17;10.64;62.12
9861;DHT22;4969;52.304;4.968;2023-01-15T00:08:44;11.07;73.16
9861;DHT22;4969;52.304;4.968;2023-01-15T00:11:11;11.78;61.87
9861;DHT22;4969;52.304;4.968;2023-01-15T00:13:37;11.87;64.07
9861;DHT22;4969;52.304;4.968;2023-01-15T00:16:06;11.23;62.21
9861;DHT22;4969;52.304;4.968;2023-01-15T00:18:33;11.97;74.28
9861;DHT22;4969;52.304;4.968;2023-01-15T00:21:03;12.55;71.47
9861;DHT22;4969;52.304;4.968;2023-01-15T00:23:30;12.67;71.49
9861;DHT22;4969;52.304;4.968;2023-01-15T00:26:14;12.62;67.78
9861;DHT22;4969;52.304;4.968;2023-01-15T00:28:59;12.45;67.37
9861;DHT22;4969;52.304;4.968;2023-01-15T00:31:25;12.99;62.52
9861;DHT22;4969;52.304;4.968;2023-01-15T00:33:52;11.34;59.75
9861;DHT22;4969;52.304;4.968;2023-01-15T00:36:21;11.68;72.95
9861;DHT22;4969;52.304;4.968;2023-01-15T00:38:47;11.40;64.64
9861;DHT22;4969;52.304;4.968;2023-01-15T00:41:14;11.28;61.07
9861;DHT22;4969;52.304;4.968;2023-01-15T00:43:43;11.97;66.86
9861;DHT22;4969;52.304;4.968;2023-01-15T00:46:10;12.41;71.88
9861;DHT22;4969;52.304;4.968;2023-01-15T00:48:37;11.12;60.41
9861;DHT22;4969;52.304;4.968;2023-01-15T00:51:04;11.17;61.05
9861;DHT22;4969;52.304;4.968;2023-01-15T00:53:32;12.00;70.09
9861;DHT22;4969;52.304;4.968;2023-01-15T00:55:58;11.36;60.17
9861;DHT22;4969;52.304;4.968;2023-01-15T00:58:25;12.45;64.66
9861;DHT22;4969;52.304;4.968;2023-01-15T01:00:52;12.02;66.28
9861;DHT22;4969;52.304;4.968;2023-01-15T01:03:21;12.02;68.09
9861;DHT22;4969;52.304;4.968;2023-01-15T01:05:47;12.10;62.33
9861;DHT22;4969;52.304;4.968;2023-01-15T01:08:14;11.95;62.37
9861;DHT22;4969;52.304;4.968;2023-01-15T01:10:43;11.99;66.19
9861;DHT22;4969;52.304;4.968;2023-01-15T01:13:11;12.48;66.93
9861;DHT22;4969;52.304;4.968;2023-01-15T01:15:38;11.75;63.87
9861;DHT22;4969;52.304;4.968;2023-01-15T01:18:05;12.38;64.73
9861;DHT22;4969;52.304;4.968;2023-01-15T01:20:32;12.21;65.74
9861;DHT22;4969;52.304;4.968;2023-01-15T01:22:59;12.93;65.16
9861;DHT22;4969;52.304;4.968;2023-01-15T01:25:26;12.92;66.50
9861;DHT22;4969;52.304;4.968;2023-01-15T01:27:54;12.67;59.79
9861;DHT22;4969;52.304;4.968;2023-01-15T01:30:20;11.97;63.46
9861;DHT22;4969;52.304;4.968;2023-01-15T01:32:47;12.02;61.61
9861;DHT22;4969;52.304;4.968;2023-01-15T01:35:13;12.31;67.99
9861;DHT22;4969;52.304;4.968;2023-01-15T01:37:40;12.69;57.62
9861;DHT22;4969;52.304;4.968;2023-01-15T01:40:08;12.04;67.20
9861;DHT22;4969;52.304;4.968;2023-01-15T01:42:34;12.23;69.52
9861;DHT22;4969;52.304;4.968;2023-01-15T01:45:07;12.75;70.54
9861;DHT22;4969;52.304;4.968;2023-01-15T01:47:37;11.96;58.17
9861;DHT22;4969;52.304;4.968;2023-01-15T01:50:07;12.06;61.29
9861;DHT22;4969;52.304;4.968;2023-01-15T01:52:38;12.82;66.18
9861;DHT22;4969;52.304;4.968;2023-01-15T01:55:07;12.95;66.50
9861;DHT22;4969;52.304;4.968;2023-01-15T01:57:34;13.24;60.58
9861;DHT22;4969;52.304;4.968;2023-01-15T02:00:02;12.89;61.25
9861;DHT22;4969;52.304;4.968;2023-01-15T02:02:32;13.30;68.46
9861;DHT22;4969;52.304;4.968;2023-01-15T02:04:59;13.45;60.78
9861;DHT22;4969;52.304;4.968;2023-01-15T02:07:26;13.42;63.40
9861;DHT22;4969;52.304;4.968;2023-01-15T02:09:55;12.36;61.62
9861;DHT22;4969;52.304;4.968;2023-01-15T02:12:25;12.97;64.60
9861;DHT22;4969;52.304;4.968;2023-01-15T02:14:58;12.76;62.62
9861;DHT22;4969;52.304;4.968;2023-01-15T02:17:35;13.13;62.79
9861;DHT22;4969;52.304;4.968;2023-01-15T02:20:20;12.95;58.55
9861;DHT22;4969;52.304;4.968;2023-01-15T02:23:04;12.89;65.75
9861;DHT22;4969;52.304;4.968;2023-01-15T02:25:42;12.58;63.35
9861;DHT22;4969;52.304;4.968;2023-01-15T02:28:16;12.57;60.91
9861;DHT22;4969;52.304;4.968;2023-01-15T02:30:48;13.48;69.61
9861;DHT22;4969;52.304;4.968;2023-01-15T02:33:21;12.26;56.20
9861;DHT22;4969;52.304;4.968;2023-01-15T02:35:51;12.03;70.11
9861;DHT22;4969;52.304;4.968;2023-01-15T02:38:21;11.75;71.67
9861;DHT22;4969;52.304;4.968;2023-01-15T02:40:51;11.43;69.05
9861;DHT22;4969;52.304;4.968;2023-01-15T02:43:21;11.50;74.27
9861;DHT22;4969;52.304;4.968;2023-01-15T02:45:51;11.43;61.81
9861;DHT22;4969;52.304;4.968;2023-01-15T02:48:22;12.09;68.45
9861;DHT22;4969;52.304;4.968;2023-01-15T02:50:53;11.44;60.95
9861;DHT22;4969;52.304;4.968;2023-01-15T02:53:23;11.65;60.86
9861;DHT22;4969;52.304;4.968;2023-01-15T02:55:53;11.78;64.08
9861;DHT22;4969;52.304;4.968;2023-01-15T02:58:24;10.74;65.29
9861;DHT22;4969;52.304;4.968;2023-01-15T03:00:53;10.65;59.38
9861;DHT22;4969;52.304;4.968;2023-01-15T03:03:27;10.78;69.62
9861;DHT22;4969;52.304;4.968;2023-01-15T03:05:59;11.10;59.20
9861;DHT22;4969;52.304;4.968;2023-01-15T03:08:27;11.14;58.67
9861;DHT22;4969;52.304;4.968;2023-01-15T03:10:58;11.96;64.41
9861;DHT22;4969;52.304;4.968;2023-01-15T03:13:38;11.95;59.45
9861;DHT22;4969;52.304;4.968;2023-01-15T03:16:12;12.17;60.99
9861;DHT22;4969;52.304;4.968;2023-01-15T03:19:04;12.79;63.09
9861;DHT22;4969;52.304;4.968;2023-01-15T03:21:40;12.45;64.08
9861;DHT22;4969;52.304;4.968;2023-01-15T03:24:10;12.04;60.96
9861;DHT22;4969;52.304;4.968;2023-01-15T03:26:38;11.95;69.21
9861;DHT22;4969;52.304;4.968;2023-01-15T03:29:07;11.69;65.02
9861;DHT22;4969;52.304;4.968;2023-01-15T03:31:35;11.21;68.68
9861;DHT22;4969;52.304;4.968;2023-01-15T03:34:02;11.38;66.32
9861;DHT22;4969;52.304;4.968;2023-01-15T03:36:31;11.81;71.01
9861;DHT22;4969;52.304;4.968;2023-01-15T03:38:58;12.04;64.06
9861;DHT22;4969;52.304;4.968;2023-01-15T03:41:29;12.03;61.21
9861;DHT22;4969;52.304;4.968;2023-01-15T03:44:08;11.89;66.30
9861;DHT22;4969;52.304;4.968;2023-01-15T03:46:48;11.82;63.41
9861;DHT22;4969;52.304;4.968;2023-01-15T03:49:22;11.50;61.48
9861;DHT22;4969;52.304;4.968;2023-01-15T03:51:58;11.32;65.03
9861;DHT22;4969;52.304;4.968;2023-01-15T03:54:34;11.74;67.40
9861;DHT22;4969;52.304;4.968;2023-01-15T03:57:05;11.83;62.04
9861;DHT22;4969;52.304;4.968;2023-01-15T03:59:38;12.61;63.16
9861;DHT22;4969;52.304;4.968;2023-01-15T04:02:07;12.61;67.34
9861;DHT22;4969;52.304;4.968;2023-01-15T04:04:37;11.76;64.74
9861;DHT22;4969;52.304;4.968;2023-01-15T04:07:04;11.68;61.95
9861;DHT22;4969;52.304;4.968;2023-01-15T04:09:36;12.04;66.00
9861;DHT22;4969;52.304;4.968;2023-01-15T04:12:03;11.75;71.55
9861;DHT22;4969;52.304;4.968;2023-01-15T04:14:30;11.69;61.91
9861;DHT22;4969;52.304;4.968;2023-01-15T04:16:59;11.12;58.74
9861;DHT22;4969;52.304;4.968;2023-01-15T04:19:25;11.13;63.68
9861;DHT22;4969;52.304;4.968;2023-01-15T04:21:52;11.19;62.99
9861;DHT22;4969;52.304;4.968;2023-01-15T04:24:19;11.62;64.97
9861;DHT22;4969;52.304;4.968;2023-01-15T04:26:45;11.00;61.46
9861;DHT22;4969;52.304;4.968;2023-01-15T04:29:12;11.65;61.15
9861;DHT22;4969;52.304;4.968;2023-01-15T04:31:38;11.72;71.00
9861;DHT22;4969;52.304;4.968;2023-01-15T04:34:06;11.69;58.73
9861;DHT22;4969;52.304;4.968;2023-01-15T04:36:33;11.46;63.69
9861;DHT22;4969;52.304;4.968;2023-01-15T04:39:00;12.00;70.09
9861;DHT22;4969;52.304;4.968;2023-01-15T04:41:27;11.51;63.48
9861;DHT22;4969;52.304;4.968;2023-01-15T04:44:11;12.47;68.88
9861;DHT22;4969;52.304;4.968;2023-01-15T04:46:39;12.02;63.20
9861;DHT22;4969;52.304;4.968;2023-01-15T04:49:10;12.30;66.03
9861;DHT22;4969;52.304;4.968;2023-01-15T04:51:37;12.30;67.12
9861;DHT22;4969;52.304;4.968;2023-01-15T04:54:05;12.14;66.59
9861;DHT22;4969;52.304;4.968;2023-01-15T04:56:36;12.93;67.26
9861;DHT22;4969;52.304;4.968;2023-01-15T04:59:03;12.10;65.88
9861;DHT22;4969;52.304;4.968;2023-01-15T05:01:29;10.97;59.41
9861;DHT22;4969;52.304;4.968;2023-01-15T05:03:56;11.67;59.41
9861;DHT22;4969;52.304;4.968;2023-01-15T05:06:24;10.85;55.92
9861;DHT22;4969;52.304;4.968;2023-01-15T05:08:51;10.75;66.30
9861;DHT22;4969;52.304;4.968;2023-01-15T05:11:18;10.96;71.35
9861;DHT22;4969;52.304;4.968;2023-01-15T05:13:44;11.09;69.09
9861;DHT22;4969;52.304;4.968;2023-01-15T05:16:13;11.78;69.65
9861;DHT22;4969;52.304;4.968;2023-01-15T05:18:40;11.02;58.92
9861;DHT22;4969;52.304;4.968;2023-01-15T05:21:13;11.57;65.25
9861;DHT22;4969;52.304;4.968;2023-01-15T05:23:41;11.64;60.45
9861;DHT22;4969;52.304;4.968;2023-01-15T05:26:07;11.10;58.52
9861;DHT22;4969;52.304;4.968;2023-01-15T05:28:34;11.40;55.68
9861;DHT22;4969;52.304;4.968;2023-01-15T05:31:05;11.09;54.82
9861;DHT22;4969;52.304;4.968;2023-01-15T05:33:33;10.75;61.02
9861;DHT22;4969;52.304;4.968;2023-01-15T05:36:01;11.07;73.16
9861;DHT22;4969;52.304;4.968;2023-01-15T05:38:27;10.03;57.97
9861;DHT22;4969;52.304;4.968;2023-01-15T05:40:55;9.69;55.46
9861;DHT22;4969;52.304;4.968;2023-01-15T05:43:22;9.73;59.24
9861;DHT22;4969;52.304;4.968;2023-01-15T05:45:49;10.09;59.57
9861;DHT22;4969;52.304;4.968;2023-01-15T05:48:15;10.33;60.07
9861;DHT22;4969;52.304;4.968;2023-01-15T05:50:42;10.16;57.40
9861;DHT22;4969;52.304;4.968;2023-01-15T05:53:08;10.85;62.07
9861;DHT22;4969;52.304;4.968;2023-01-15T05:55:35;11.09;65.16
9861;DHT22;4969;52.304;4.968;2023-01-15T05:58:03;11.55;65.37
9861;DHT22;4969;52.304;4.968;2023-01-15T06:00:29;10.68;57.16
9861;DHT22;4969;52.304;4.968;2023-01-15T06:02:56;10.67;62.74
9861;DHT22;4969;52.304;4.968;2023-01-15T06:05:23;10.38;62.08
9861;DHT22;4969;52.304;4.968;2023-01-15T06:07:49;10.27;61.35
9861;DHT22;4969;52.304;4.968;2023-01-15T06:10:17;10.48;61.62
9861;DHT22;4969;52.304;4.968;2023-01-15T06:12:44;10.51;69.63
9861;DHT22;4969;52.304;4.968;2023-01-15T06:15:12;10.48;62.20
9861;DHT22;4969;52.304;4.968;2023-01-15T06:17:39;10.85;68.86
9861;DHT22;4969;52.304;4.968;2023-01-15T06:20:07;10.27;61.85
9861;DHT22;4969;52.304;4.968;2023-01-15T06:22:33;10.20;59.76
9861;DHT22;4969;52.304;4.968;2023-01-15T06:25:01;10.64;63.06
9861;DHT22;4969;52.304;4.968;2023-01-15T06:27:27;10.05;64.99
9861;DHT22;4969;52.304;4.968;2023-01-15T06:29:54;10.68;61.39
9861;DHT22;4969;52.304;4.968;2023-01-15T06:32:24;10.37;67.53
9861;DHT22;4969;52.304;4.968;2023-01-15T06:34:51;10.82;60.18
9861;DHT22;4969;52.304;4.968;2023-01-15T06:37:18;10.44;61.41
9861;DHT22;4969;52.304;4.968;2023-01-15T06:39:44;10.57;61.71
9861;DHT22;4969;52.304;4.968;2023-01-15T06:42:11;9.89;57.38
9861;DHT22;4969;52.304;4.968;2023-01-15T06:44:55;9.85;59.31
9861;DHT22;4969;52.304;4.968;2023-01-15T06:47:40;11.03;69.19
9861;DHT22;4969;52.304;4.968;2023-01-15T06:50:08;10.51;60.79
9861;DHT22;4969;52.304;4.968;2023-01-15T06:52:35;10.65;64.29
9861;DHT22;4969;52.304;4.968;2023-01-15T06:55:01;10.69;61.03
9861;DHT22;4969;52.304;4.968;2023-01-15T06:57:28;9.73;58.01
9861;DHT22;4969;52.304;4.968;2023-01-15T06:59:54;10.72;70.81
9861;DHT22;4969;52.304;4.968;2023-01-15T07:02:21;11.09;66.53
9861;DHT22;4969;52.304;4.968;2023-01-15T07:04:50;10.55;60.18
9861;DHT22;4969;52.304;4.968;2023-01-15T07:07:18;10.36;65.67
9861;DHT22;4969;52.304;4.968;2023-01-15T07:09:45;10.54;61.08
9861;DHT22;4969;52.304;4.968;2023-01-15T07:12:11;10.76;65.60
9861;DHT22;4969;52.304;4.968;2023-01-15T07:14:38;10.67;59.95
9861;DHT22;4969;52.304;4.968;2023-01-15T07:17:05;9.47;59.57
9861;DHT22;4969;52.304;4.968;2023-01-15T07:19:32;10.00;64.25
9861;DHT22;4969;52.304;4.968;2023-01-15T07:22:00;9.64;56.85
9861;DHT22;4969;52.304;4.968;2023-01-15T07:24:26;10.51;63.55
9861;DHT22;4969;52.304;4.968;2023-01-15T07:26:53;10.68;56.66
9861;DHT22;4969;52.304;4.968;2023-01-15T07:29:19;10.41;67.75
9861;DHT22;4969;52.304;4.968;2023-01-15T07:31:47;11.21;67.51
9861;DHT22;4969;52.304;4.968;2023-01-15T07:34:14;10.17;58.45
9861;DHT22;4969;52.304;4.968;2023-01-15T07:36:41;10.88;70.18
9861;DHT22;4969;52.304;4.968;2023-01-15T07:39:10;11.32;66.04
9861;DHT22;4969;52.304;4.968;2023-01-15T07:41:37;11.97;66.97
9861;DHT22;4969;52.304;4.968;2023-01-15T07:44:21;12.26;62.52
9861;DHT22;4969;52.304;4.968;2023-01-15T07:47:14;11.78;70.43
9861;DHT22;4969;52.304;4.968;2023-01-15T07:49:59;11.76;56.42
9861;DHT22;4969;52.304;4.968;2023-01-15T07:52:26;11.52;62.28
9861;DHT22;4969;52.304;4.968;2023-01-15T07:54:54;11.19;62.84
9861;DHT22;4969;52.304;4.968;2023-01-15T07:57:21;11.09;60.38
9861;DHT22;4969;52.304;4.968;2023-01-15T07:59:48;11.87;63.75
9861;DHT22;4969;52.304;4.968;2023-01-15T08:02:15;11.00;61.32
9861;DHT22;4969;52.304;4.968;2023-01-15T08:04:41;11.58;66.51
9861;DHT22;4969;52.304;4.968;2023-01-15T08:07:08;11.96;66.49
9861;DHT22;4969;52.304;4.968;2023-01-15T08:09:35;11.61;58.81
9861;DHT22;4969;52.304;4.968;2023-01-15T08:12:04;11.03;58.62
9861;DHT22;4969;52.304;4.968;2023-01-15T08:14:48;11.37;64.31
9861;DHT22;4969;52.304;4.968;2023-01-15T08:17:32;10.97;68.65
9861;DHT22;4969;52.304;4.968;2023-01-15T08:19:59;11.55;65.30
9861;DHT22;4969;52.304;4.968;2023-01-15T08:22:25;11.00;60.45
9861;DHT22;4969;52.304;4.968;2023-01-15T08:24:52;11.37;68.12
9861;DHT22;4969;52.304;4.968;2023-01-15T08:27:20;11.43;67.66
9861;DHT22;4969;52.304;4.968;2023-01-15T08:29:47;12.13;68.42
9861;DHT22;4969;52.304;4.968;2023-01-15T08:32:14;11.89;60.73
9861;DHT22;4969;52.304;4.968;2023-01-15T08:34:40;11.90;59.55
9861;DHT22;4969;52.304;4.968;2023-01-15T08:37:08;11.13;60.31
9861;DHT22;4969;52.304;4.968;2023-01-15T08:39:34;9.33;60.15
9861;DHT22;4969;52.304;4.968;2023-01-15T08:42:01;10.61;65.33
9861;DHT22;4969;52.304;4.968;2023-01-15T08:44:29;10.23;60.61
9861;DHT22;4969;52.304;4.968;2023-01-15T08:46:55;10.52;61.24
9861;DHT22;4969;52.304;4.968;2023-01-15T08:49:22;9.95;62.75
9861;DHT22;4969;52.304;4.968;2023-01-15T08:51:49;10.21;63.32
9861;DHT22;4969;52.304;4.968;2023-01-15T08:54:16;10.10;70.46
9861;DHT22;4969;52.304;4.968;2023-01-15T08:56:43;9.73;62.92
9861;DHT22;4969;52.304;4.968;2023-01-15T08:59:10;11.27;63.83
9861;DHT22;4969;52.304;4.968;2023-01-15T09:01:38;11.51;66.46
9861;DHT22;4969;52.304;4.968;2023-01-15T09:04:05;11.83;65.13
9861;DHT22;4969;52.304;4.968;2023-01-15T09:06:31;12.48;60.30
9861;DHT22;4969;52.304;4.968;2023-01-15T09:08:58;10.91;66.23
9861;DHT22;4969;52.304;4.968;2023-01-15T09:11:25;10.93;63.88
9861;DHT22;4969;52.304;4.968;2023-01-15T09:13:53;11.17;65.71
9861;DHT22;4969;52.304;4.968;2023-01-15T09:16:19;11.96;67.00
9861;DHT22;4969;52.304;4.968;2023-01-15T09:18:47;10.83;63.14
9861;DHT22;4969;52.304;4.968;2023-01-15T09:21:14;10.82;71.19
9861;DHT22;4969;52.304;4.968;2023-01-15T09:23:41;12.54;71.19
9861;DHT22;4969;52.304;4.968;2023-01-15T09:26:25;12.38;60.27
9861;DHT22;4969;52.304;4.968;2023-01-15T09:28:52;11.76;66.65
9861;DHT22;4969;52.304;4.968;2023-01-15T09:31:19;11.81;67.98
9861;DHT22;4969;52.304;4.968;2023-01-15T09:33:45;10.95;63.45
9861;DHT22;4969;52.304;4.968;2023-01-15T09:36:15;11.96;69.67
9861;DHT22;4969;52.304;4.968;2023-01-15T09:38:42;12.36;56.48
9861;DHT22;4969;52.304;4.968;2023-01-15T09:41:11;11.50;60.63
9861;DHT22;4969;52.304;4.968;2023-01-15T09:44:06;12.31;63.14
9861;DHT22;4969;52.304;4.968;2023-01-15T09:46:39;12.47;62.73
9861;DHT22;4969;52.304;4.968;2023-01-15T09:49:21;11.57;60.63
9861;DHT22;4969;52.304;4.968;2023-01-15T09:51:57;12.50;70.97
9861;DHT22;4969;52.304;4.968;2023-01-15T09:54:44;11.93;61.32
9861;DHT22;4969;52.304;4.968;2023-01-15T09:57:15;11.34;59.95
9861;DHT22;4969;52.304;4.968;2023-01-15T09:59:45;12.03;70.95
9861;DHT22;4969;52.304;4.968;2023-01-15T10:02:20;11.79;66.47
9861;DHT22;4969;52.304;4.968;2023-01-15T10:04:51;11.07;63.85
9861;DHT22;4969;52.304;4.968;2023-01-15T10:07:24;11.31;62.91
9861;DHT22;4969;52.304;4.968;2023-01-15T10:09:57;11.44;75.14
9861;DHT22;4969;52.304;4.968;2023-01-15T10:12:27;12.07;65.62
9861;DHT22;4969;52.304;4.968;2023-01-15T10:15:16;11.95;68.11
9861;DHT22;4969;52.304;4.968;2023-01-15T10:17:46;13.14;64.19
9861;DHT22;4969;52.304;4.968;2023-01-15T10:20:15;12.38;61.24
9861;DHT22;4969;52.304;4.968;2023-01-15T10:22:58;11.28;63.94
9861;DHT22;4969;52.304;4.968;2023-01-15T10:25:33;12.33;61.87
9861;DHT22;4969;52.304;4.968;2023-01-15T10:28:14;12.79;65.04
9861;DHT22;4969;52.304;4.968;2023-01-15T10:30:46;12.27;57.89
9861;DHT22;4969;52.304;4.968;2023-01-15T10:33:39;12.44;69.97
9861;DHT22;4969;52.304;4.968;2023-01-15T10:36:11;13.52;65.35
9861;DHT22;4969;52.304;4.968;2023-01-15T10:38:47;12.92;62.37
9861;DHT22;4969;52.304;4.968;2023-01-15T10:41:37;12.64;62.85
9861;DHT22;4969;52.304;4.968;2023-01-15T10:44:09;14.24;61.59
9861;DHT22;4969;52.304;4.968;2023-01-15T10:46:38;12.96;63.87
9861;DHT22;4969;52.304;4.968;2023-01-15T10:49:12;13.89;60.60
9861;DHT22;4969;52.304;4.968;2023-01-15T10:51:41;12.52;67.95
9861;DHT22;4969;52.304;4.968;2023-01-15T10:54:16;12.00;64.99
9861;DHT22;4969;52.304;4.968;2023-01-15T10:56:50;11.95;62.11
9861;DHT22;4969;52.304;4.968;2023-01-15T10:59:26;11.74;66.90
9861;DHT22;4969;52.304;4.968;2023-01-15T11:01:59;12.23;66.29
9861;DHT22;4969;52.304;4.968;2023-01-15T11:04:29;12.73;68.09
9861;DHT22;4969;52.304;4.968;2023-01-15T11:06:56;12.06;58.36
9861;DHT22;4969;52.304;4.968;2023-01-15T11:09:26;11.86;67.06
9861;DHT22;4969;52.304;4.968;2023-01-15T11:12:04;11.89;64.61
9861;DHT22;4969;52.304;4.968;2023-01-15T11:14:51;11.32;57.76
9861;DHT22;4969;52.304;4.968;2023-01-15T11:17:48;11.71;64.78
9861;DHT22;4969;52.304;4.968;2023-01-15T11:20:33;11.19;63.57
9861;DHT22;4969;52.304;4.968;2023-01-15T11:23:06;11.52;63.90
9861;DHT22;4969;52.304;4.968;2023-01-15T11:25:35;11.69;72.93
9861;DHT22;4969;52.304;4.968;2023-01-15T11:28:05;12.27;62.27
9861;DHT22;4969;52.304;4.968;2023-01-15T11:30:33;11.17;65.23
9861;DHT22;4969;52.304;4.968;2023-01-15T11:33:02;12.27;66.69
9861;DHT22;4969;52.304;4.968;2023-01-15T11:35:29;11.34;65.74
9861;DHT22;4969;52.304;4.968;2023-01-15T11:38:04;10.78;63.63
9861;DHT22;4969;52.304;4.968;2023-01-15T11:40:31;11.13;64.46
9861;DHT22;4969;52.304;4.968;2023-01-15T11:42:59;11.38;62.36
9861;DHT22;4969;52.304;4.968;2023-01-15T11:45:46;11.65;66.20
9861;DHT22;4969;52.304;4.968;2023-01-15T11:48:33;10.47;64.25
9861;DHT22;4969;52.304;4.968;2023-01-15T11:51:20;11.26;64.66
9861;DHT22;4969;52.304;4.968;2023-01-15T11:53:49;11.48;70.47
9861;DHT22;4969;52.304;4.968;2023-01-15T11:56:21;11.68;64.11
9861;DHT22;4969;52.304;4.968;2023-01-15T11:58:53;10.99;67.00
9861;DHT22;4969;52.304;4.968;2023-01-15T12:01:22;11.67;61.08
9861;DHT22;4969;52.304;4.968;2023-01-15T12:03:50;12.17;68.44
9861;DHT22;4969;52.304;4.968;2023-01-15T12:06:18;11.58;69.36
9861;DHT22;4969;52.304;4.968;2023-01-15T12:08:48;11.51;67.18
9861;DHT22;4969;52.304;4.968;2023-01-15T12:11:26;11.12;69.57
9861;DHT22;4969;52.304;4.968;2023-01-15T12:14:24;11.21;63.89
9861;DHT22;4969;52.304;4.968;2023-01-15T12:16:57;10.92;60.69
9861;DHT22;4969;52.304;4.968;2023-01-15T12:19:31;11.23;69.82
9861;DHT22;4969;52.304;4.968;2023-01-15T12:22:20;10.55;67.39
9861;DHT22;4969;52.304;4.968;2023-01-15T12:25:03;11.55;68.67
9861;DHT22;4969;52.304;4.968;2023-01-15T12:27:43;10.69;62.45
9861;DHT22;4969;52.304;4.968;2023-01-15T12:30:20;10.49;63.28
9861;DHT22;4969;52.304;4.968;2023-01-15T12:32:53;10.86;69.37
9861;DHT22;4969;52.304;4.968;2023-01-15T12:35:31;11.03;63.26
9861;DHT22;4969;52.304;4.968;2023-01-15T12:38:03;10.96;63.46
9861;DHT22;4969;52.304;4.968;2023-01-15T12:40:40;11.30;62.48
9861;DHT22;4969;52.304;4.968;2023-01-15T12:43:15;10.93;66.73
9861;DHT22;4969;52.304;4.968;2023-01-15T12:46:04;10.75;66.67
9861;DHT22;4969;52.304;4.968;2023-01-15T12:48:38;11.83;64.02
9861;DHT22;4969;52.304;4.968;2023-01-15T12:51:08;11.17;66.66
9861;DHT22;4969;52.304;4.968;2023-01-15T12:53:41;10.95;64.55
9861;DHT22;4969;52.304;4.968;2023-01-15T12:56:16;11.24;63.21
9861;DHT22;4969;52.304;4.968;2023-01-15T12:58:48;11.61;67.35
9861;DHT22;4969;52.304;4.968;2023-01-15T13:01:21;11.76;67.22
9861;DHT22;4969;52.304;4.968;2023-01-15T13:03:59;11.26;66.82
9861;DHT22;4969;52.304;4.968;2023-01-15T13:06:29;11.23;64.77
9861;DHT22;4969;52.304;4.968;2023-01-15T13:09:01;11.14;70.99
9861;DHT22;4969;52.304;4.968;2023-01-15T13:11:29;11.06;66.83
9861;DHT22;4969;52.304;4.968;2023-01-15T13:13:56;10.89;68.15
9861;DHT22;4969;52.304;4.968;2023-01-15T13:16:35;11.55;69.88
9861;DHT22;4969;52.304;4.968;2023-01-15T13:19:29;11.38;64.88
9861;DHT22;4969;52.304;4.968;2023-01-15T13:22:02;11.43;64.01
9861;DHT22;4969;52.304;4.968;2023-01-15T13:27:41;11.04;63.83
9861;DHT22;4969;52.304;4.968;2023-01-15T13:30:20;10.68;66.76
9861;DHT22;4969;52.304;4.968;2023-01-15T13:32:52;11.03;70.22
9861;DHT22;4969;52.304;4.968;2023-01-15T13:35:28;10.76;68.51
9861;DHT22;4969;52.304;4.968;2023-01-15T13:37:56;11.04;64.50
9861;DHT22;4969;52.304;4.968;2023-01-15T13:40:26;10.45;66.44
9861;DHT22;4969;52.304;4.968;2023-01-15T13:42:54;11.46;66.31
9861;DHT22;4969;52.304;4.968;2023-01-15T13:45:27;11.54;67.44
9861;DHT22;4969;52.304;4.968;2023-01-15T13:48:04;11.04;66.77
9861;DHT22;4969;52.304;4.968;2023-01-15T13:50:32;11.24;68.18
9861;DHT22;4969;52.304;4.968;2023-01-15T13:53:04;10.74;68.74
9861;DHT22;4969;52.304;4.968;2023-01-15T13:55:33;10.40;70.04
9861;DHT22;4969;52.304;4.968;2023-01-15T13:58:02;8.99;69.81
9861;DHT22;4969;52.304;4.968;2023-01-15T14:00:41;8.43;75.56
9861;DHT22;4969;52.304;4.968;2023-01-15T14:03:26;9.36;72.37
9861;DHT22;4969;52.304;4.968;2023-01-15T14:05:53;9.73;72.60
9861;DHT22;4969;52.304;4.968;2023-01-15T14:08:25;9.12;77.27
9861;DHT22;4969;52.304;4.968;2023-01-15T14:10:52;9.13;73.82
9861;DHT22;4969;52.304;4.968;2023-01-15T14:13:41;8.71;75.14
9861;DHT22;4969;52.304;4.968;2023-01-15T14:16:19;9.58;77.45
9861;DHT22;4969;52.304;4.968;2023-01-15T14:19:20;8.20;77.15
9861;DHT22;4969;52.304;4.968;2023-01-15T14:21:58;7.78;77.89
9861;DHT22;4969;52.304;4.968;2023-01-15T14:24:45;8.06;78.79
9861;DHT22;4969;52.304;4.968;2023-01-15T14:27:24;7.77;77.55
9861;DHT22;4969;52.304;4.968;2023-01-15T14:30:09;7.94;77.26
9861;DHT22;4969;52.304;4.968;2023-01-15T14:32:51;8.43;76.83
9861;DHT22;4969;52.304;4.968;2023-01-15T14:35:23;8.23;78.56
9861;DHT22;4969;52.304;4.968;2023-01-15T14:37:52;8.03;79.89
9861;DHT22;4969;52.304;4.968;2023-01-15T14:40:21;8.15;76.35
9861;DHT22;4969;52.304;4.968;2023-01-15T14:42:51;8.78;77.67
9861;DHT22;4969;52.304;4.968;2023-01-15T14:45:31;7.71;83.43
9861;DHT22;4969;52.304;4.968;2023-01-15T14:48:01;7.08;79.22
9861;DHT22;4969;52.304;4.968;2023-01-15T14:50:34;7.77;82.90
9861;DHT22;4969;52.304;4.968;2023-01-15T14:55:50;7.74;78.56
9861;DHT22;4969;52.304;4.968;2023-01-15T14:58:30;7.74;79.35
9861;DHT22;4969;52.304;4.968;2023-01-15T15:01:03;7.43;78.93
9861;DHT22;4969;52.304;4.968;2023-01-15T15:03:33;7.43;79.36
9861;DHT22;4969;52.304;4.968;2023-01-15T15:06:03;8.57;80.19
9861;DHT22;4969;52.304;4.968;2023-01-15T15:08:32;8.50;78.85
9861;DHT22;4969;52.304;4.968;2023-01-15T15:11:00;8.40;79.37
9861;DHT22;4969;52.304;4.968;2023-01-15T15:13:30;8.07;78.59
9861;DHT22;4969;52.304;4.968;2023-01-15T15:16:04;9.12;75.02
9861;DHT22;4969;52.304;4.968;2023-01-15T15:18:35;7.96;76.74
9861;DHT22;4969;52.304;4.968;2023-01-15T15:21:08;7.41;79.84
9861;DHT22;4969;52.304;4.968;2023-01-15T15:23:40;8.20;80.31
9861;DHT22;4969;52.304;4.968;2023-01-15T15:26:19;8.36;77.89
9861;DHT22;4969;52.304;4.968;2023-01-15T15:28:58;8.85;77.82
9861;DHT22;4969;52.304;4.968;2023-01-15T15:31:26;8.72;76.76
9861;DHT22;4969;52.304;4.968;2023-01-15T15:33:54;10.37;78.25
9861;DHT22;4969;52.304;4.968;2023-01-15T15:36:24;10.14;79.95
9861;DHT22;4969;52.304;4.968;2023-01-15T15:38:52;10.72;77.94
9861;DHT22;4969;52.304;4.968;2023-01-15T15:41:21;10.69;76.35
9861;DHT22;4969;52.304;4.968;2023-01-15T15:44:14;10.31;75.15
9861;DHT22;4969;52.304;4.968;2023-01-15T15:47:01;10.00;72.19
9861;DHT22;4969;52.304;4.968;2023-01-15T15:49:59;9.45;77.83
9861;DHT22;4969;52.304;4.968;2023-01-15T15:52:27;10.24;75.09
9861;DHT22;4969;52.304;4.968;2023-01-15T15:54:58;9.27;74.54
9861;DHT22;4969;52.304;4.968;2023-01-15T15:57:26;9.71;75.83
9861;DHT22;4969;52.304;4.968;2023-01-15T15:59:54;9.52;74.37
9861;DHT22;4969;52.304;4.968;2023-01-15T16:02:23;9.59;72.00
9861;DHT22;4969;52.304;4.968;2023-01-15T16:04:52;9.48;73.98
9861;DHT22;4969;52.304;4.968;2023-01-15T16:07:24;9.43;74.49
9861;DHT22;4969;52.304;4.968;2023-01-15T16:09:55;9.45;74.11
9861;DHT22;4969;52.304;4.968;2023-01-15T16:12:24;9.91;76.69
9861;DHT22;4969;52.304;4.968;2023-01-15T16:14:53;9.73;74.91
9861;DHT22;4969;52.304;4.968;2023-01-15T16:17:20;9.58;70.68
9861;DHT22;4969;52.304;4.968;2023-01-15T16:19:48;9.52;74.29
9861;DHT22;4969;52.304;4.968;2023-01-15T16:22:16;10.21;75.61
9861;DHT22;4969;52.304;4.968;2023-01-15T16:24:54;10.13;73.10
9861;DHT22;4969;52.304;4.968;2023-01-15T16:27:21;10.65;73.95
9861;DHT22;4969;52.304;4.968;2023-01-15T16:29:49;10.10;71.91
9861;DHT22;4969;52.304;4.968;2023-01-15T16:32:21;10.49;72.50
9861;DHT22;4969;52.304;4.968;2023-01-15T16:35:03;10.81;71.76
9861;DHT22;4969;52.304;4.968;2023-01-15T16:37:30;12.12;75.55